Time;durP1;ratioP1;P1;durP2;ratioP2;P2;SDS_P1;SDS_P2;PMS_P1;PMS_P2;Temp;Humidity;BMP_temperature;BMP_pressure;BME280_temperature;BME280_humidity;BME280_pressure;Samples;Min_cycle;Max_cycle;Signal;HPM_P1;HPM_P2
2023/12/09 00:00:42;;;;;;;25.02;5.00;;;7.10;99.90;;;;;;6179414;23;20017;-77
2023/12/09 00:03:08;;;;;;;22.30;4.97;;;7.10;99.90;;;;;;6178823;23;20021;-75
2023/12/09 00:05:34;;;;;;;26.45;5.20;;;7.10;99.90;;;;;;6177184;23;20344;-76
2023/12/09 00:07:59;;;;;;;35.83;6.40;;;7.10;99.90;;;;;;6180948;23;20013;-77
2023/12/09 00:10:25;;;;;;;34.00;5.05;;;7.10;99.90;;;;;;6177824;23;20111;-76
2023/12/09 00:12:51;;;;;;;25.63;5.80;;;7.20;99.90;;;;;;6181726;23;20067;-77
2023/12/09 00:15:16;;;;;;;26.27;4.70;;;7.20;99.90;;;;;;6179672;23;20092;-79
2023/12/09 00:17:42;;;;;;;14.32;4.10;;;7.20;99.90;;;;;;6181026;23;20338;-77
2023/12/09 00:20:08;;;;;;;30.15;5.32;;;7.10;99.90;;;;;;6181923;23;19998;-78
2023/12/09 00:22:33;;;;;;;33.03;5.30;;;7.10;99.90;;;;;;6179560;23;20017;-77
2023/12/09 00:24:59;;;;;;;21.05;4.28;;;7.10;99.90;;;;;;6181448;23;20005;-79
2023/12/09 00:27:25;;;;;;;29.70;6.97;;;7.10;99.90;;;;;;6179132;23;20013;-77
2023/12/09 00:29:50;;;;;;;18.60;4.43;;;7.10;99.90;;;;;;6180085;23;20091;-77
2023/12/09 00:32:17;;;;;;;28.85;5.75;;;7.10;99.90;;;;;;6183030;23;20037;-77
2023/12/09 00:34:42;;;;;;;17.00;4.10;;;7.10;99.90;;;;;;6180364;23;20068;-77
2023/12/09 00:37:08;;;;;;;20.13;4.78;;;7.10;99.90;;;;;;6180950;23;20005;-77
2023/12/09 00:39:34;;;;;;;23.70;4.32;;;7.20;99.90;;;;;;6181032;23;20021;-76
2023/12/09 00:41:59;;;;;;;21.65;4.05;;;7.20;99.90;;;;;;6178941;23;20096;-77
2023/12/09 00:44:25;;;;;;;32.28;4.68;;;7.20;99.90;;;;;;6178703;23;20008;-77
2023/12/09 00:46:50;;;;;;;16.15;4.65;;;7.30;99.90;;;;;;6179826;23;20007;-77
2023/12/09 00:49:16;;;;;;;22.92;4.93;;;7.20;99.90;;;;;;6180224;23;20052;-78
2023/12/09 00:51:42;;;;;;;22.92;4.38;;;7.30;99.90;;;;;;6178524;23;20024;-75
2023/12/09 00:54:07;;;;;;;24.25;4.95;;;7.20;99.90;;;;;;6178866;23;20019;-77
2023/12/09 00:56:33;;;;;;;13.85;4.22;;;7.20;99.90;;;;;;6180938;23;20013;-77
2023/12/09 00:58:58;;;;;;;33.13;6.13;;;7.20;99.90;;;;;;6180534;23;20067;-77
2023/12/09 01:01:24;;;;;;;28.85;6.13;;;7.20;99.90;;;;;;6181338;23;20079;-78
2023/12/09 01:03:50;;;;;;;17.45;3.92;;;7.20;99.90;;;;;;6181640;23;20087;-77
2023/12/09 01:06:16;;;;;;;22.05;4.50;;;7.20;99.90;;;;;;6180345;23;20044;-78
2023/12/09 01:08:42;;;;;;;22.13;4.28;;;7.20;99.90;;;;;;6179702;23;20027;-76
2023/12/09 01:11:07;;;;;;;25.58;4.53;;;7.10;99.90;;;;;;6179944;23;20530;-77
2023/12/09 01:13:33;;;;;;;28.80;4.68;;;7.10;99.90;;;;;;6181693;23;20063;-76
2023/12/09 01:15:58;;;;;;;20.40;4.85;;;7.10;99.90;;;;;;6180873;23;20041;-77
2023/12/09 01:18:24;;;;;;;19.00;4.32;;;7.10;99.90;;;;;;6177188;23;20016;-76
2023/12/09 01:20:50;;;;;;;32.03;4.50;;;7.00;99.90;;;;;;6180699;23;19997;-77
2023/12/09 01:23:15;;;;;;;33.78;6.05;;;7.00;99.90;;;;;;6179380;23;20009;-77
2023/12/09 01:25:41;;;;;;;24.05;4.28;;;7.10;99.90;;;;;;6180009;23;20012;-77
2023/12/09 01:28:06;;;;;;;25.52;5.20;;;7.10;99.90;;;;;;6180717;23;20013;-77
2023/12/09 01:30:32;;;;;;;28.13;5.03;;;7.00;99.90;;;;;;6178004;23;20040;-76
2023/12/09 01:32:58;;;;;;;19.05;3.47;;;7.00;99.90;;;;;;6182965;23;20063;-78
2023/12/09 01:35:23;;;;;;;18.40;4.03;;;6.90;99.90;;;;;;6177584;23;20005;-77
2023/12/09 01:37:49;;;;;;;31.27;4.63;;;6.90;99.90;;;;;;6178361;23;20024;-77
2023/12/09 01:40:15;;;;;;;34.25;6.15;;;6.90;99.90;;;;;;6178484;23;20019;-76
2023/12/09 01:42:42;;;;;;;31.33;4.70;;;6.90;99.90;;;;;;6178341;23;20036;-77
2023/12/09 01:45:08;;;;;;;26.35;5.10;;;6.90;99.90;;;;;;6177982;23;20010;-76
2023/12/09 01:47:35;;;;;;;29.63;3.20;;;6.90;99.90;;;;;;6177485;23;20451;-77
2023/12/09 01:50:03;;;;;;;18.65;4.90;;;6.80;99.90;;;;;;6179732;23;20523;-77
2023/12/09 01:52:30;;;;;;;27.00;5.25;;;6.80;99.90;;;;;;6178904;23;20118;-77
2023/12/09 01:54:57;;;;;;;20.65;3.85;;;6.80;99.90;;;;;;6180319;23;20470;-76
2023/12/09 01:57:23;;;;;;;27.05;4.75;;;6.80;99.90;;;;;;6177698;23;20048;-76
2023/12/09 01:59:48;;;;;;;21.00;3.70;;;6.80;99.90;;;;;;6180004;23;20391;-76
2023/12/09 02:02:14;;;;;;;19.02;3.53;;;6.80;99.90;;;;;;6178676;23;20047;-76
2023/12/09 02:04:40;;;;;;;17.65;4.00;;;6.70;99.90;;;;;;6178157;23;20431;-75
2023/12/09 02:07:06;;;;;;;24.48;4.10;;;6.80;99.90;;;;;;6180502;23;20013;-76
2023/12/09 02:09:32;;;;;;;30.77;6.28;;;6.70;99.90;;;;;;6181093;23;20020;-77
2023/12/09 02:12:24;;;;;;;27.73;5.05;;;6.70;99.90;;;;;;6180498;23;20016;-77
2023/12/09 02:15:03;;;;;;;22.55;3.35;;;6.70;99.90;;;;;;6179434;23;20104;-77
2023/12/09 02:17:38;;;;;;;18.20;3.47;;;6.70;99.90;;;;;;6178116;23;20063;-78
2023/12/09 02:20:05;;;;;;;21.80;5.30;;;6.70;99.90;;;;;;6180110;23;20011;-79
2023/12/09 02:22:31;;;;;;;25.77;3.47;;;6.70;99.90;;;;;;6177368;23;20024;-77
2023/12/09 02:24:56;;;;;;;26.80;5.10;;;6.70;99.90;;;;;;6180837;23;20009;-77
2023/12/09 02:27:32;;;;;;;24.70;4.75;;;6.70;99.90;;;;;;6180062;23;20017;-77
2023/12/09 02:30:20;;;;;;;15.00;4.35;;;6.70;99.90;;;;;;6180381;23;20013;-79
2023/12/09 02:32:49;;;;;;;22.20;4.78;;;6.60;99.90;;;;;;6181241;23;20005;-77
2023/12/09 02:35:16;;;;;;;35.67;4.70;;;6.60;99.90;;;;;;6182021;23;20056;-76
2023/12/09 02:37:43;;;;;;;21.17;4.82;;;6.60;99.90;;;;;;6176104;23;20005;-77
2023/12/09 02:40:10;;;;;;;30.42;5.88;;;6.60;99.90;;;;;;6180561;23;20005;-76
2023/12/09 02:42:37;;;;;;;20.98;3.92;;;6.60;99.90;;;;;;6179168;23;20013;-78
2023/12/09 02:45:07;;;;;;;15.38;3.33;;;6.50;99.90;;;;;;6179900;23;20015;-77
2023/12/09 02:47:33;;;;;;;19.75;4.03;;;6.50;99.90;;;;;;6176049;23;20517;-76
2023/12/09 02:49:58;;;;;;;16.77;3.65;;;6.50;99.90;;;;;;6182704;23;20045;-77
2023/12/09 02:52:24;;;;;;;19.90;3.95;;;6.50;99.90;;;;;;6178893;23;20011;-77
2023/12/09 02:54:50;;;;;;;24.67;4.60;;;6.40;99.90;;;;;;6178864;23;20013;-77
2023/12/09 02:57:16;;;;;;;22.77;3.50;;;6.40;99.90;;;;;;6178716;23;20019;-77
2023/12/09 02:59:41;;;;;;;13.77;3.13;;;6.40;99.90;;;;;;6177207;23;20005;-77
2023/12/09 03:02:07;;;;;;;21.63;4.45;;;6.40;99.90;;;;;;6178710;23;20035;-77
2023/12/09 03:04:33;;;;;;;36.17;5.38;;;6.40;99.90;;;;;;6176452;23;20056;-77
2023/12/09 03:06:59;;;;;;;19.23;4.13;;;6.40;99.90;;;;;;6178152;23;20085;-79
2023/12/09 03:09:24;;;;;;;32.72;5.75;;;6.40;99.90;;;;;;6177908;23;20064;-77
2023/12/09 03:11:50;;;;;;;32.45;5.43;;;6.40;99.90;;;;;;6179354;23;20009;-77
2023/12/09 03:14:15;;;;;;;20.73;3.42;;;6.40;99.90;;;;;;6180173;23;20044;-76
2023/12/09 03:16:41;;;;;;;19.00;3.47;;;6.30;99.90;;;;;;6179070;23;20115;-77
2023/12/09 03:19:06;;;;;;;19.60;3.67;;;6.30;99.90;;;;;;6181172;23;20017;-78
2023/12/09 03:21:32;;;;;;;23.02;4.03;;;6.30;99.90;;;;;;6179320;23;20013;-79
2023/12/09 03:23:57;;;;;;;11.45;2.60;;;6.30;99.90;;;;;;6180942;23;20009;-77
2023/12/09 03:26:25;;;;;;;18.65;4.05;;;6.30;99.90;;;;;;6178300;23;20375;-76
2023/12/09 03:28:51;;;;;;;19.92;3.42;;;6.30;99.90;;;;;;6179947;23;20021;-75
2023/12/09 03:31:17;;;;;;;20.63;4.43;;;6.30;99.90;;;;;;6180219;23;20010;-77
2023/12/09 03:33:43;;;;;;;20.02;3.70;;;6.20;99.90;;;;;;6178751;23;20053;-76
2023/12/09 03:36:13;;;;;;;31.13;6.22;;;6.20;99.90;;;;;;6178264;23;20009;-75
2023/12/09 03:38:39;;;;;;;23.05;4.22;;;6.20;99.90;;;;;;6177312;23;20029;-77
2023/12/09 03:41:05;;;;;;;16.45;4.53;;;6.20;99.90;;;;;;6179773;23;20451;-77
2023/12/09 03:43:31;;;;;;;14.95;2.63;;;6.20;99.90;;;;;;6180742;23;20013;-76
2023/12/09 03:45:58;;;;;;;27.95;4.78;;;6.10;99.90;;;;;;6180991;23;20011;-77
2023/12/09 03:48:24;;;;;;;18.33;4.10;;;6.10;99.90;;;;;;6180187;23;20431;-77
2023/12/09 03:50:49;;;;;;;14.95;3.53;;;6.10;99.90;;;;;;6180355;23;20024;-76
2023/12/09 03:53:15;;;;;;;15.90;3.42;;;6.10;99.90;;;;;;6181152;23;20033;-77
2023/12/09 03:55:40;;;;;;;24.50;5.53;;;6.10;99.90;;;;;;6181525;23;20009;-76
2023/12/09 03:58:06;;;;;;;22.30;3.72;;;6.10;99.90;;;;;;6182600;23;20013;-77
2023/12/09 04:00:32;;;;;;;23.83;4.80;;;6.10;99.90;;;;;;6178475;23;20005;-77
2023/12/09 04:02:58;;;;;;;26.30;5.07;;;6.10;99.90;;;;;;6179988;23;20080;-77
2023/12/09 04:05:23;;;;;;;19.00;4.55;;;6.10;99.90;;;;;;6180467;23;20447;-77
2023/12/09 04:07:49;;;;;;;19.30;4.28;;;6.10;99.90;;;;;;6179847;23;20017;-79
2023/12/09 04:10:14;;;;;;;17.40;4.18;;;6.10;99.90;;;;;;6180068;23;20009;-79
2023/12/09 04:12:40;;;;;;;22.65;4.75;;;6.10;99.90;;;;;;6179141;23;20406;-78
2023/12/09 04:15:07;;;;;;;15.45;4.30;;;6.10;99.90;;;;;;6183073;23;20020;-77
2023/12/09 04:17:33;;;;;;;28.42;4.60;;;6.10;99.90;;;;;;6181186;23;20052;-77
2023/12/09 04:19:58;;;;;;;20.40;4.35;;;6.00;99.90;;;;;;6182231;23;20463;-77
2023/12/09 04:22:25;;;;;;;24.98;4.25;;;6.10;99.90;;;;;;6181563;23;20079;-78
2023/12/09 04:24:50;;;;;;;14.98;4.10;;;6.20;99.90;;;;;;6182752;23;20009;-77
2023/12/09 04:27:16;;;;;;;22.58;4.57;;;6.10;99.90;;;;;;6181917;23;20013;-77
2023/12/09 04:29:42;;;;;;;25.73;5.35;;;6.10;99.90;;;;;;6181176;23;20062;-78
2023/12/09 04:32:08;;;;;;;22.05;4.75;;;6.10;99.90;;;;;;6180135;23;20351;-77
2023/12/09 04:34:35;;;;;;;25.27;5.18;;;6.10;99.90;;;;;;6181283;23;20498;-77
2023/12/09 04:37:01;;;;;;;30.60;5.00;;;6.10;99.90;;;;;;6182424;23;20016;-77
2023/12/09 04:39:27;;;;;;;20.15;4.97;;;6.20;99.90;;;;;;6178765;23;20386;-76
2023/12/09 04:41:53;;;;;;;22.73;4.57;;;6.20;99.90;;;;;;6178762;23;20009;-77
2023/12/09 04:44:18;;;;;;;26.20;5.93;;;6.20;99.90;;;;;;6180648;23;20037;-76
2023/12/09 04:46:44;;;;;;;27.45;5.07;;;6.20;99.90;;;;;;6181691;23;20024;-78
2023/12/09 04:49:10;;;;;;;24.88;4.72;;;6.20;99.90;;;;;;6180240;23;20525;-76
2023/12/09 04:51:36;;;;;;;23.52;5.10;;;6.20;99.90;;;;;;6178980;23;20013;-75
2023/12/09 04:54:02;;;;;;;18.77;3.92;;;6.30;99.90;;;;;;6182776;23;20361;-77
2023/12/09 04:56:29;;;;;;;25.48;5.70;;;6.20;99.90;;;;;;6179449;23;20064;-78
2023/12/09 04:58:55;;;;;;;23.70;3.80;;;6.20;99.90;;;;;;6179409;23;20013;-77
2023/12/09 05:01:21;;;;;;;19.52;4.55;;;6.20;99.90;;;;;;6179958;23;20036;-77
2023/12/09 05:03:47;;;;;;;18.50;3.97;;;6.20;99.90;;;;;;6179901;23;20351;-78
2023/12/09 05:06:12;;;;;;;27.70;4.38;;;6.20;99.90;;;;;;6180713;23;20123;-76
2023/12/09 05:08:41;;;;;;;26.58;5.78;;;6.20;99.90;;;;;;6178281;23;22315;-75
2023/12/09 05:11:08;;;;;;;32.38;5.57;;;6.20;99.90;;;;;;6182097;23;20013;-78
2023/12/09 05:13:33;;;;;;;23.02;4.30;;;6.20;99.90;;;;;;6178738;23;20065;-77
2023/12/09 05:15:59;;;;;;;16.50;3.45;;;6.30;99.90;;;;;;6182057;23;20375;-78
2023/12/09 05:18:25;;;;;;;20.52;4.20;;;6.30;99.90;;;;;;6177512;23;20005;-78
2023/12/09 05:20:50;;;;;;;25.10;5.43;;;6.30;99.90;;;;;;6180375;23;20071;-77
2023/12/09 05:23:16;;;;;;;27.35;3.85;;;6.40;99.90;;;;;;6179287;23;20389;-77
2023/12/09 05:25:43;;;;;;;26.60;5.18;;;6.30;99.90;;;;;;6178911;23;20064;-77
2023/12/09 05:28:09;;;;;;;21.42;4.60;;;6.30;99.90;;;;;;6181808;23;20075;-77
2023/12/09 05:30:35;;;;;;;23.55;4.50;;;6.30;99.90;;;;;;6179634;23;20017;-77
2023/12/09 05:33:00;;;;;;;24.38;4.70;;;6.30;99.90;;;;;;6181031;23;20084;-76
2023/12/09 05:35:26;;;;;;;18.25;4.35;;;6.30;99.90;;;;;;6179378;23;20020;-76
2023/12/09 05:37:51;;;;;;;23.55;4.70;;;6.30;99.90;;;;;;6179725;23;20013;-76
2023/12/09 05:40:17;;;;;;;20.58;4.95;;;6.30;99.90;;;;;;6177961;23;20005;-76
2023/12/09 05:42:43;;;;;;;28.20;5.13;;;6.40;99.90;;;;;;6176688;23;20011;-76
2023/12/09 05:45:09;;;;;;;16.55;3.72;;;6.30;99.90;;;;;;6180297;23;20005;-77
2023/12/09 05:47:34;;;;;;;19.15;3.72;;;6.30;99.90;;;;;;6179444;23;20005;-77
2023/12/09 05:50:00;;;;;;;18.23;3.67;;;6.40;99.90;;;;;;6180832;23;20093;-77
2023/12/09 05:52:25;;;;;;;25.27;5.45;;;6.40;99.90;;;;;;6178431;23;20016;-77
2023/12/09 05:54:51;;;;;;;16.35;3.40;;;6.50;99.90;;;;;;6178736;23;20455;-77
2023/12/09 05:57:17;;;;;;;17.10;3.05;;;6.40;99.90;;;;;;6181001;23;20024;-78
2023/12/09 05:59:42;;;;;;;23.48;4.15;;;6.50;99.90;;;;;;6179942;23;20009;-76
2023/12/09 06:02:08;;;;;;;23.90;3.85;;;6.50;99.90;;;;;;6177914;23;20067;-77
2023/12/09 06:04:33;;;;;;;13.38;3.65;;;6.50;99.90;;;;;;6176710;23;20075;-77
2023/12/09 06:06:59;;;;;;;13.02;3.17;;;6.60;99.90;;;;;;6180677;23;20008;-77
2023/12/09 06:09:25;;;;;;;21.30;3.97;;;6.60;99.90;;;;;;6177542;23;20331;-77
2023/12/09 06:11:50;;;;;;;23.08;3.95;;;6.70;99.90;;;;;;6179880;23;20595;-77
2023/12/09 06:14:16;;;;;;;14.82;3.70;;;6.70;99.90;;;;;;6178581;23;20324;-77
2023/12/09 06:16:41;;;;;;;26.92;4.93;;;6.70;99.90;;;;;;6177739;23;20083;-76
2023/12/09 06:19:07;;;;;;;16.20;3.40;;;6.70;99.90;;;;;;6177776;23;20092;-78
2023/12/09 06:21:33;;;;;;;19.50;5.35;;;6.70;99.90;;;;;;6177474;23;20025;-76
2023/12/09 06:23:58;;;;;;;27.63;4.93;;;6.70;99.90;;;;;;6178397;23;20439;-77
2023/12/09 06:26:24;;;;;;;23.73;5.55;;;6.80;99.90;;;;;;6178467;23;20015;-77
2023/12/09 06:28:49;;;;;;;18.23;4.32;;;6.80;99.90;;;;;;6181290;23;20013;-78
2023/12/09 06:31:15;;;;;;;21.83;4.15;;;6.90;99.90;;;;;;6179612;23;20098;-77
2023/12/09 06:33:40;;;;;;;17.70;4.47;;;6.90;99.90;;;;;;6179537;23;20017;-77
2023/12/09 06:36:06;;;;;;;20.15;4.88;;;7.00;99.90;;;;;;6180819;23;20390;-76
2023/12/09 06:38:37;;;;;;;12.77;3.50;;;6.90;99.90;;;;;;6178926;23;20021;-78
2023/12/09 06:41:03;;;;;;;;;;;7.00;99.90;;;;;;6180882;23;20027;-78
2023/12/09 06:43:28;;;;;;;23.27;5.53;;;7.10;99.90;;;;;;6178156;23;20327;-77
2023/12/09 06:45:54;;;;;;;18.80;3.50;;;7.10;99.90;;;;;;6179234;23;20006;-76
2023/12/09 06:48:20;;;;;;;20.15;4.53;;;7.10;99.90;;;;;;6178984;23;20021;-78
2023/12/09 06:50:45;;;;;;;16.50;4.32;;;7.10;99.90;;;;;;6178724;23;20016;-76
2023/12/09 06:53:13;;;;;;;20.67;4.50;;;7.10;99.90;;;;;;6178021;23;20009;-76
2023/12/09 06:55:39;;;;;;;22.67;5.20;;;7.10;99.90;;;;;;6180855;23;20013;-77
2023/12/09 06:58:05;;;;;;;17.33;4.22;;;7.20;99.90;;;;;;6178970;23;20013;-76
2023/12/09 07:00:31;;;;;;;21.08;5.50;;;7.10;99.90;;;;;;6177735;23;20013;-76
2023/12/09 07:02:56;;;;;;;16.10;4.97;;;7.20;99.90;;;;;;6178504;23;20015;-78
2023/12/09 07:05:22;;;;;;;24.45;4.28;;;7.20;99.90;;;;;;6181396;23;20080;-78
2023/12/09 07:07:51;;;;;;;21.30;4.70;;;7.20;99.90;;;;;;6180652;23;20346;-76
2023/12/09 07:10:16;;;;;;;23.40;5.57;;;7.30;99.90;;;;;;6179747;23;20001;-77
2023/12/09 07:12:45;;;;;;;21.92;6.15;;;7.20;99.90;;;;;;6176483;23;20064;-77
2023/12/09 07:15:12;;;;;;;19.80;5.32;;;7.20;99.90;;;;;;6178059;23;20032;-77
2023/12/09 07:17:37;;;;;;;20.98;5.25;;;7.30;99.90;;;;;;6178777;23;20016;-78
2023/12/09 07:20:05;;;;;;;16.67;4.07;;;7.30;99.90;;;;;;6178495;23;20347;-71
2023/12/09 07:22:31;;;;;;;20.35;4.68;;;7.30;99.90;;;;;;6177493;23;20474;-79
2023/12/09 07:24:57;;;;;;;14.23;3.88;;;7.30;99.90;;;;;;6181716;23;20001;-79
2023/12/09 07:27:22;;;;;;;21.23;3.78;;;7.30;99.90;;;;;;6176418;23;20402;-77
2023/12/09 07:29:48;;;;;;;22.95;4.80;;;7.20;99.90;;;;;;6172648;23;20364;-75
2023/12/09 07:32:14;;;;;;;14.15;4.70;;;7.30;99.90;;;;;;6178788;23;20029;-76
2023/12/09 07:34:40;;;;;;;18.67;4.35;;;7.30;99.90;;;;;;6176282;23;20339;-75
2023/12/09 07:37:05;;;;;;;33.17;5.68;;;7.30;99.90;;;;;;6178313;23;20005;-76
2023/12/09 07:39:31;;;;;;;15.88;3.80;;;7.40;99.90;;;;;;6176787;23;20095;-77
2023/12/09 07:41:57;;;;;;;16.02;3.55;;;7.30;99.90;;;;;;6180162;23;20013;-79
2023/12/09 07:44:22;;;;;;;24.10;5.10;;;7.40;99.90;;;;;;6173570;23;20021;-79
2023/12/09 07:46:48;;;;;;;24.00;4.10;;;7.40;99.90;;;;;;6177847;23;20009;-77
2023/12/09 07:49:14;;;;;;;15.00;2.90;;;7.40;99.90;;;;;;6176833;23;20056;-77
2023/12/09 07:51:39;;;;;;;15.27;3.20;;;7.40;99.90;;;;;;6175423;23;20048;-76
2023/12/09 07:54:05;;;;;;;20.52;2.95;;;7.40;99.90;;;;;;6177869;23;20051;-77
2023/12/09 07:56:31;;;;;;;24.08;3.85;;;7.40;99.90;;;;;;6174669;23;20105;-75
2023/12/09 07:58:57;;;;;;;12.80;3.72;;;7.40;99.90;;;;;;6177013;23;20035;-77
2023/12/09 08:01:22;;;;;;;17.40;4.10;;;7.40;99.90;;;;;;6175713;23;20005;-76
2023/12/09 08:03:48;;;;;;;17.52;4.85;;;7.40;99.90;;;;;;6178205;23;20020;-77
2023/12/09 08:06:13;;;;;;;14.13;2.90;;;7.50;99.90;;;;;;6175959;23;20320;-76
2023/12/09 08:08:39;;;;;;;14.13;2.97;;;7.50;99.90;;;;;;6177266;23;20017;-74
2023/12/09 08:11:05;;;;;;;25.65;3.88;;;7.40;99.90;;;;;;6179602;23;20035;-78
2023/12/09 08:13:31;;;;;;;27.45;4.90;;;7.50;99.90;;;;;;6177242;23;20438;-76
2023/12/09 08:15:56;;;;;;;21.20;3.67;;;7.50;99.90;;;;;;6177633;23;20013;-77
2023/12/09 08:18:22;;;;;;;24.52;3.65;;;7.50;99.90;;;;;;6174842;23;20012;-77
2023/12/09 08:20:47;;;;;;;20.52;3.30;;;7.50;99.90;;;;;;6176741;23;20440;-76
2023/12/09 08:23:13;;;;;;;16.27;3.85;;;7.50;99.90;;;;;;6178629;23;20079;-76
2023/12/09 08:25:39;;;;;;;15.18;3.22;;;7.50;99.90;;;;;;6175767;23;21152;-76
2023/12/09 08:28:05;;;;;;;18.65;2.55;;;7.50;99.90;;;;;;6177556;23;20029;-76
2023/12/09 08:30:32;;;;;;;24.67;3.38;;;7.60;99.90;;;;;;6176757;23;20515;-77
2023/12/09 08:32:58;;;;;;;13.18;2.80;;;7.50;99.90;;;;;;6178332;23;20009;-77
2023/12/09 08:35:24;;;;;;;20.65;3.88;;;7.50;99.90;;;;;;6175654;23;20025;-76
2023/12/09 08:37:49;;;;;;;29.60;6.03;;;7.60;99.90;;;;;;6177084;23;20012;-77
2023/12/09 08:40:15;;;;;;;21.38;3.38;;;7.60;99.90;;;;;;6179314;23;20095;-76
2023/12/09 08:42:43;;;;;;;15.25;3.00;;;7.60;99.90;;;;;;6177321;23;20013;-77
2023/12/09 08:45:11;;;;;;;14.25;3.33;;;7.60;99.90;;;;;;6179045;23;20005;-77
2023/12/09 08:47:37;;;;;;;12.95;3.20;;;7.60;99.90;;;;;;6177066;23;20013;-77
2023/12/09 08:50:04;;;;;;;14.50;3.85;;;7.60;99.90;;;;;;6176493;23;20091;-76
2023/12/09 08:52:31;;;;;;;19.67;2.50;;;7.60;99.90;;;;;;6177593;23;20009;-76
2023/12/09 08:54:57;;;;;;;8.68;2.33;;;7.50;99.90;;;;;;6177220;23;20036;-77
2023/12/09 08:57:23;;;;;;;15.85;2.95;;;7.50;99.90;;;;;;6178785;23;20009;-77
2023/12/09 08:59:49;;;;;;;12.63;2.00;;;7.60;99.90;;;;;;6180281;23;20009;-76
2023/12/09 09:02:14;;;;;;;10.45;2.28;;;7.60;99.90;;;;;;6177535;23;20020;-77
2023/12/09 09:04:40;;;;;;;12.55;2.03;;;7.60;99.90;;;;;;6178039;23;20091;-77
2023/12/09 09:07:06;;;;;;;11.77;2.90;;;7.70;99.90;;;;;;6178804;23;20009;-76
2023/12/09 09:09:32;;;;;;;15.88;3.85;;;7.70;99.90;;;;;;6177105;23;20017;-77
2023/12/09 09:11:57;;;;;;;14.05;2.35;;;7.70;99.90;;;;;;6178728;23;20020;-77
2023/12/09 09:14:23;;;;;;;18.27;2.50;;;7.70;99.90;;;;;;6177113;23;20094;-77
2023/12/09 09:16:49;;;;;;;10.32;2.08;;;7.70;99.90;;;;;;6180256;23;20013;-76
2023/12/09 09:19:15;;;;;;;12.23;2.70;;;7.70;99.90;;;;;;6176536;23;20091;-76
2023/12/09 09:21:40;;;;;;;14.55;2.10;;;7.70;99.90;;;;;;6177972;23;20094;-76
2023/12/09 09:24:08;;;;;;;16.83;2.63;;;7.70;99.90;;;;;;6177566;23;20507;-77
2023/12/09 09:26:34;;;;;;;12.90;1.67;;;7.70;99.90;;;;;;6178084;23;20524;-77
2023/12/09 09:29:00;;;;;;;11.57;2.75;;;7.70;99.90;;;;;;6177243;23;20005;-77
2023/12/09 09:31:25;;;;;;;17.10;2.42;;;7.80;99.90;;;;;;6177826;23;20107;-76
2023/12/09 09:33:51;;;;;;;9.90;1.85;;;7.80;99.90;;;;;;6180174;23;20392;-77
2023/12/09 09:36:17;;;;;;;14.93;2.72;;;7.90;99.90;;;;;;6177645;23;20009;-75
2023/12/09 09:38:43;;;;;;;17.20;3.40;;;7.90;99.90;;;;;;6177246;23;20037;-77
2023/12/09 09:41:17;;;;;;;17.75;3.05;;;7.90;99.90;;;;;;6180333;23;20005;-78
2023/12/09 09:43:47;;;;;;;5.47;1.75;;;7.90;99.90;;;;;;6178615;23;20040;-78
2023/12/09 09:46:14;;;;;;;15.75;2.35;;;8.00;99.90;;;;;;6179719;23;20036;-78
2023/12/09 09:48:44;;;;;;;10.02;1.77;;;8.00;99.90;;;;;;6176558;23;20070;-75
2023/12/09 09:51:15;;;;;;;10.77;2.65;;;8.00;99.90;;;;;;6180183;23;20100;-76
2023/12/09 09:54:18;;;;;;;18.65;2.33;;;8.00;99.90;;;;;;6179448;23;20079;-77
2023/12/09 09:56:44;;;;;;;6.22;1.60;;;8.10;99.90;;;;;;6180271;23;20092;-77
2023/12/09 09:59:11;;;;;;;14.32;3.08;;;8.10;99.90;;;;;;6178612;23;20045;-77
2023/12/09 10:01:37;;;;;;;14.13;3.30;;;8.10;99.90;;;;;;6179226;23;20009;-77
2023/12/09 10:04:03;;;;;;;11.40;2.42;;;8.20;99.90;;;;;;6179069;23;20062;-77
2023/12/09 10:06:30;;;;;;;5.10;1.27;;;8.20;99.90;;;;;;6176947;23;20035;-77
2023/12/09 10:08:57;;;;;;;9.20;2.13;;;8.20;99.90;;;;;;6179708;23;20084;-76
2023/12/09 10:11:22;;;;;;;9.35;1.55;;;8.20;99.90;;;;;;6177925;23;20009;-76
2023/12/09 10:13:48;;;;;;;10.48;1.92;;;8.30;99.90;;;;;;6179104;23;20075;-76
2023/12/09 10:16:14;;;;;;;11.38;1.80;;;8.30;99.90;;;;;;6180004;23;20015;-76
2023/12/09 10:18:47;;;;;;;8.85;1.90;;;8.30;99.90;;;;;;6179641;23;20012;-77
2023/12/09 10:21:14;;;;;;;11.23;3.00;;;8.30;99.90;;;;;;6179325;23;20009;-77
2023/12/09 10:23:40;;;;;;;11.15;2.10;;;8.40;99.90;;;;;;6179831;23;20049;-77
2023/12/09 10:26:07;;;;;;;12.55;2.65;;;8.40;99.90;;;;;;6178071;23;20067;-77
2023/12/09 10:28:33;;;;;;;10.82;2.90;;;8.40;99.90;;;;;;6177584;23;20005;-76
2023/12/09 10:31:00;;;;;;;7.43;1.35;;;8.50;99.90;;;;;;6179513;23;20695;-79
2023/12/09 10:33:29;;;;;;;7.07;1.52;;;8.50;99.90;;;;;;6179127;23;20519;-79
2023/12/09 10:35:56;;;;;;;12.57;1.25;;;8.50;99.90;;;;;;6178663;23;20435;-78
2023/12/09 10:38:22;;;;;;;10.30;2.42;;;8.50;99.90;;;;;;6179222;23;20001;-77
2023/12/09 10:40:49;;;;;;;5.38;1.23;;;8.50;99.90;;;;;;6177936;23;20009;-78
2023/12/09 10:43:15;;;;;;;8.57;2.40;;;8.60;99.90;;;;;;6176666;23;20083;-75
2023/12/09 10:45:41;;;;;;;8.20;1.20;;;8.60;99.90;;;;;;6173202;23;20020;-77
2023/12/09 10:48:07;;;;;;;8.52;1.50;;;8.50;99.90;;;;;;6176967;23;20013;-77
2023/12/09 10:50:35;;;;;;;8.50;1.95;;;8.50;99.90;;;;;;6174786;23;20005;-77
2023/12/09 10:53:01;;;;;;;10.43;1.70;;;8.60;99.90;;;;;;6175871;23;20005;-77
2023/12/09 10:55:26;;;;;;;5.22;1.13;;;8.60;99.90;;;;;;6176677;23;20354;-76
2023/12/09 10:57:54;;;;;;;14.10;2.55;;;8.60;99.90;;;;;;6177300;23;20013;-77
2023/12/09 11:00:22;;;;;;;4.80;1.50;;;8.60;99.90;;;;;;6179084;23;20012;-76
2023/12/09 11:02:47;;;;;;;15.65;2.30;;;8.70;99.90;;;;;;6176238;23;20082;-78
2023/12/09 11:05:14;;;;;;;4.78;1.02;;;8.70;99.90;;;;;;6179434;23;20020;-75
2023/12/09 11:07:40;;;;;;;9.52;1.15;;;8.70;99.90;;;;;;6176207;23;20017;-76
2023/12/09 11:10:07;;;;;;;6.97;1.13;;;8.70;99.90;;;;;;6176453;23;20035;-77
2023/12/09 11:12:34;;;;;;;5.32;1.52;;;8.80;99.90;;;;;;6174535;23;20009;-77
2023/12/09 11:15:07;;;;;;;6.95;1.52;;;8.70;99.90;;;;;;6176400;23;20105;-77
2023/12/09 11:17:37;;;;;;;6.18;1.23;;;8.70;99.90;;;;;;6176629;23;20028;-76
2023/12/09 11:20:09;;;;;;;8.00;1.23;;;8.70;99.90;;;;;;6178864;23;20013;-76
2023/12/09 11:22:40;;;;;;;3.95;0.80;;;8.70;99.90;;;;;;6176371;23;20343;-77
2023/12/09 11:25:08;;;;;;;16.25;1.65;;;8.70;99.90;;;;;;6179479;23;20391;-78
2023/12/09 11:27:36;;;;;;;11.40;1.88;;;8.60;99.90;;;;;;6176056;23;20017;-77
2023/12/09 11:30:02;;;;;;;7.07;1.65;;;8.70;99.90;;;;;;6180020;23;20013;-76
2023/12/09 11:32:29;;;;;;;6.07;1.23;;;8.70;99.90;;;;;;6177402;23;20024;-77
2023/12/09 11:34:56;;;;;;;9.95;1.45;;;8.60;99.90;;;;;;6177955;23;20036;-77
2023/12/09 11:37:22;;;;;;;7.90;1.55;;;8.60;99.90;;;;;;6178224;23;20009;-79
2023/12/09 11:39:48;;;;;;;5.90;0.95;;;8.60;99.90;;;;;;6180088;23;20039;-78
2023/12/09 11:42:14;;;;;;;4.80;1.25;;;8.60;99.90;;;;;;6181988;23;20028;-78
2023/12/09 11:44:41;;;;;;;8.25;1.77;;;8.50;99.90;;;;;;6181633;23;21042;-78
2023/12/09 11:49:44;;;;;;;3.85;1.40;;;8.40;99.90;;;;;;6171947;23;20021;-74
2023/12/09 11:52:09;;;;;;;8.77;1.45;;;8.40;99.90;;;;;;6151169;23;20020;-73
2023/12/09 11:54:35;;;;;;;14.95;1.70;;;8.30;99.90;;;;;;6177348;23;20021;-74
2023/12/09 11:57:00;;;;;;;7.13;0.88;;;8.30;99.90;;;;;;6152296;23;20008;-73
2023/12/09 11:59:26;;;;;;;8.48;0.90;;;8.30;99.90;;;;;;6174758;23;20024;-73
2023/12/09 12:01:51;;;;;;;12.07;1.35;;;8.30;99.90;;;;;;6179427;23;20015;-73
2023/12/09 12:04:17;;;;;;;6.25;0.90;;;8.30;99.90;;;;;;6179718;23;20017;-73
2023/12/09 12:06:43;;;;;;;7.65;1.00;;;8.30;99.90;;;;;;6179693;23;20017;-72
2023/12/09 12:09:09;;;;;;;17.10;1.98;;;8.30;99.90;;;;;;6180802;23;20066;-73
2023/12/09 12:11:34;;;;;;;8.77;1.92;;;8.30;99.90;;;;;;6179673;23;20009;-73
2023/12/09 12:14:00;;;;;;;5.20;0.98;;;8.20;99.90;;;;;;6181237;23;20021;-73
2023/12/09 12:16:26;;;;;;;11.60;1.77;;;8.20;99.90;;;;;;6177741;23;20046;-73
2023/12/09 12:18:54;;;;;;;3.17;0.90;;;8.20;99.90;;;;;;6179151;23;20013;-72
2023/12/09 12:21:20;;;;;;;7.30;0.70;;;8.20;99.90;;;;;;6183276;23;20013;-72
2023/12/09 12:23:51;;;;;;;5.88;1.05;;;8.30;99.90;;;;;;6186536;23;20056;-72
2023/12/09 12:26:17;;;;;;;6.40;1.20;;;8.20;99.90;;;;;;6183512;23;20005;-71
2023/12/09 12:28:47;;;;;;;7.70;1.15;;;8.30;99.90;;;;;;6177833;23;20460;-72
2023/12/09 12:31:13;;;;;;;3.13;0.65;;;8.30;99.90;;;;;;6179279;23;20005;-73
2023/12/09 12:33:39;;;;;;;7.72;1.15;;;8.30;99.90;;;;;;6179774;23;20016;-72
2023/12/09 12:36:05;;;;;;;3.45;0.40;;;8.20;99.90;;;;;;6179187;23;20089;-74
2023/12/09 12:38:32;;;;;;;5.00;0.93;;;8.20;99.90;;;;;;6179778;23;20013;-73
2023/12/09 12:40:57;;;;;;;2.08;0.52;;;8.20;99.90;;;;;;6178886;23;20009;-73
2023/12/09 12:43:24;;;;;;;4.35;0.93;;;8.10;99.90;;;;;;6177546;23;20016;-74
2023/12/09 12:45:51;;;;;;;5.75;0.98;;;8.20;99.90;;;;;;6179022;23;20028;-72